createdAt,value
2023-04-30T00:00:40.009Z,2.00
2023-04-30T00:03:59.064Z,2.00
2023-04-30T00:07:02.918Z,2.60
2023-04-30T00:10:36.996Z,2.13
2023-04-30T00:13:41.088Z,2.67
2023-04-30T00:17:00.008Z,2.80
2023-04-30T00:20:03.966Z,2.13
2023-04-30T00:23:26.161Z,2.50
2023-04-30T00:26:45.939Z,2.67
2023-04-30T00:30:03.242Z,2.40
2023-04-30T00:33:19.013Z,2.40
2023-04-30T00:36:38.580Z,2.55
2023-04-30T00:39:44.904Z,2.47
2023-04-30T00:43:14.066Z,2.33
2023-04-30T00:46:30.109Z,2.60
2023-04-30T00:50:01.124Z,2.57
2023-04-30T00:53:17.198Z,2.60
2023-04-30T00:56:36.164Z,2.70
2023-04-30T01:00:05.073Z,2.83
2023-04-30T01:03:22.293Z,2.13
2023-04-30T01:06:26.143Z,2.10
2023-04-30T01:09:54.374Z,2.50
2023-04-30T01:13:11.148Z,2.60
2023-04-30T01:16:43.242Z,2.70
2023-04-30T01:20:02.218Z,2.13
2023-04-30T01:23:35.449Z,2.53
2023-04-30T01:26:54.220Z,2.53
2023-04-30T01:30:26.273Z,2.50
2023-04-30T01:33:30.244Z,2.40
2023-04-30T01:37:02.219Z,2.30
2023-04-30T01:40:29.398Z,2.50
2023-04-30T01:44:00.312Z,2.50
2023-04-30T01:47:30.360Z,2.83
2023-04-30T01:50:59.315Z,2.57
2023-04-30T01:54:27.291Z,3.00
2023-04-30T01:57:58.296Z,2.30
2023-04-30T02:01:14.292Z,2.27
2023-04-30T02:04:46.224Z,2.03
2023-04-30T02:08:04.336Z,2.60
2023-04-30T02:11:23.338Z,2.50
2023-04-30T02:14:39.334Z,2.50
2023-04-30T02:17:56.450Z,2.70
2023-04-30T02:21:16.302Z,2.60
2023-04-30T02:24:35.377Z,2.00
2023-04-30T02:27:51.410Z,2.70
2023-04-30T02:31:08.235Z,3.05
2023-04-30T02:34:12.420Z,2.50
2023-04-30T02:37:45.298Z,2.83
2023-04-30T02:40:49.462Z,2.77
2023-04-30T02:44:08.386Z,2.40
2023-04-30T02:47:24.439Z,2.50
2023-04-30T02:50:43.678Z,2.80
2023-04-30T02:54:00.471Z,2.83
2023-04-30T02:57:22.715Z,2.70
2023-04-30T03:00:38.543Z,2.93
2023-04-30T03:03:54.483Z,2.30
2023-04-30T03:07:10.728Z,3.03
2023-04-30T03:10:40.664Z,2.63
2023-04-30T03:14:08.556Z,2.20
2023-04-30T03:17:24.473Z,2.90
2023-04-30T03:20:40.569Z,2.53
2023-04-30T03:23:59.525Z,2.63
2023-04-30T03:27:32.628Z,2.53
2023-04-30T03:30:51.808Z,2.70
2023-04-30T03:34:07.563Z,3.30
2023-04-30T03:37:26.630Z,2.50
2023-04-30T03:40:30.572Z,3.03
2023-04-30T03:44:02.927Z,3.00
2023-04-30T03:47:18.635Z,2.33
2023-04-30T03:50:49.588Z,2.50
2023-04-30T03:53:53.654Z,2.77
2023-04-30T03:57:24.656Z,2.70
2023-04-30T04:00:56.733Z,3.30
2023-04-30T04:04:24.698Z,3.00
2023-04-30T04:07:40.661Z,2.73
2023-04-30T04:11:08.804Z,2.90
2023-04-30T04:14:12.672Z,3.00
2023-04-30T04:17:44.762Z,2.90
2023-04-30T04:20:48.740Z,2.90
2023-04-30T04:24:08.025Z,2.63
2023-04-30T04:27:11.733Z,2.70
2023-04-30T04:30:30.758Z,2.77
2023-04-30T04:34:02.952Z,3.10
2023-04-30T04:37:21.826Z,3.40
2023-04-30T04:40:25.808Z,3.10
2023-04-30T04:43:42.772Z,3.23
2023-04-30T04:47:10.907Z,2.97
2023-04-30T04:50:45.794Z,3.03
2023-04-30T04:54:13.885Z,2.77
2023-04-30T04:57:32.824Z,3.90
2023-04-30T05:00:36.890Z,3.40
2023-04-30T05:03:56.195Z,2.90
2023-04-30T05:07:12.906Z,3.43
2023-04-30T05:10:32.022Z,3.27
2023-04-30T05:13:35.887Z,3.07
2023-04-30T05:16:54.941Z,3.07
2023-04-30T05:19:58.950Z,3.20
2023-04-30T05:23:30.980Z,3.80
2023-04-30T05:26:34.857Z,3.73
2023-04-30T05:29:54.155Z,3.30
2023-04-30T05:33:10.140Z,3.40
2023-04-30T05:36:42.480Z,2.67
2023-04-30T05:39:59.023Z,3.20
2023-04-30T05:43:15.962Z,2.37
2023-04-30T05:46:20.044Z,2.87
2023-04-30T05:49:39.061Z,2.77
2023-04-30T05:52:43.115Z,3.00
2023-04-30T05:56:15.047Z,2.50
2023-04-30T05:59:19.172Z,2.90
2023-04-30T06:02:38.214Z,2.53
2023-04-30T06:05:55.160Z,2.37
2023-04-30T06:08:59.021Z,2.40
2023-04-30T06:12:34.190Z,2.87
2023-04-30T06:15:38.068Z,2.40
2023-04-30T06:18:55.092Z,2.50
2023-04-30T06:21:59.192Z,3.60
2023-04-30T06:25:18.064Z,3.00
2023-04-30T06:28:35.312Z,2.50
2023-04-30T06:31:54.084Z,2.30
2023-04-30T06:34:58.222Z,2.55
2023-04-30T06:38:14.272Z,2.20
2023-04-30T06:41:18.161Z,2.10
2023-04-30T06:44:48.150Z,2.20
2023-04-30T06:47:52.217Z,2.17
2023-04-30T06:51:21.199Z,2.00
2023-04-30T06:54:25.304Z,2.15
2023-04-30T06:57:44.244Z,1.90
2023-04-30T07:01:01.212Z,2.63
2023-04-30T07:04:20.291Z,1.87
2023-04-30T07:07:24.201Z,1.77
2023-04-30T07:10:52.275Z,2.40
2023-04-30T07:13:56.285Z,2.07
2023-04-30T07:17:31.365Z,2.05
2023-04-30T07:20:35.173Z,2.30
2023-04-30T07:23:54.116Z,2.27
2023-04-30T07:26:58.627Z,1.87
2023-04-30T07:30:17.327Z,2.67
2023-04-30T07:33:37.336Z,2.25
2023-04-30T07:36:56.314Z,2.30
2023-04-30T07:40:00.366Z,2.10
2023-04-30T07:43:16.371Z,1.90
2023-04-30T07:46:20.635Z,2.00
2023-04-30T07:49:53.647Z,1.93
2023-04-30T07:53:12.404Z,2.00
2023-04-30T07:56:28.443Z,2.63
2023-04-30T07:59:32.473Z,2.10
2023-04-30T08:03:00.709Z,2.10
2023-04-30T08:06:33.606Z,1.93
2023-04-30T08:09:37.444Z,1.60
2023-04-30T08:13:05.367Z,2.03
2023-04-30T08:16:09.511Z,2.07
2023-04-30T08:19:28.495Z,2.03
2023-04-30T08:22:57.593Z,2.73
2023-04-30T08:26:13.461Z,2.00
2023-04-30T08:29:17.593Z,1.90
2023-04-30T08:32:48.769Z,2.50
2023-04-30T08:36:04.521Z,2.03
2023-04-30T08:39:39.594Z,2.20
2023-04-30T08:42:58.483Z,1.85
2023-04-30T08:46:17.631Z,2.10
2023-04-30T08:49:33.518Z,2.00
2023-04-30T08:53:01.595Z,1.80
2023-04-30T08:56:23.057Z,2.03
2023-04-30T08:59:40.726Z,1.77
2023-04-30T09:02:56.549Z,2.00
2023-04-30T09:06:12.607Z,1.90
2023-04-30T09:09:32.646Z,1.80
2023-04-30T09:13:04.653Z,1.60
2023-04-30T09:16:08.621Z,1.93
2023-04-30T09:19:49.647Z,1.80
2023-04-30T09:23:06.642Z,1.93
2023-04-30T09:26:23.761Z,1.60
2023-04-30T09:29:41.698Z,1.40
2023-04-30T09:33:21.657Z,1.90
2023-04-30T09:36:25.753Z,2.10
2023-04-30T09:39:57.042Z,1.53
2023-04-30T09:43:24.727Z,1.80
2023-04-30T09:46:58.902Z,1.50
2023-04-30T09:50:14.821Z,1.87
2023-04-30T09:53:45.711Z,1.95
2023-04-30T09:57:02.027Z,2.23
2023-04-30T10:00:33.798Z,1.97
2023-04-30T10:04:06.835Z,1.63
2023-04-30T10:07:23.145Z,1.70
2023-04-30T10:10:53.774Z,1.90
2023-04-30T10:14:12.870Z,2.45
2023-04-30T10:17:44.134Z,1.90
2023-04-30T10:21:00.827Z,1.80
2023-04-30T10:24:29.862Z,1.60
2023-04-30T10:27:45.906Z,1.67
2023-04-30T10:31:16.846Z,1.93
2023-04-30T10:34:33.894Z,1.73
2023-04-30T10:38:05.828Z,1.80
2023-04-30T10:41:27.652Z,1.73
2023-04-30T10:45:01.960Z,1.50
2023-04-30T10:48:06.047Z,1.90
2023-04-30T10:51:24.896Z,1.60
2023-04-30T10:54:45.022Z,1.70
2023-04-30T10:58:00.966Z,1.27
2023-04-30T11:01:18.233Z,1.63
2023-04-30T11:04:37.078Z,1.83
2023-04-30T11:07:53.949Z,1.77
2023-04-30T11:11:25.978Z,1.50
2023-04-30T11:14:42.070Z,1.70
2023-04-30T11:18:10.194Z,1.20
2023-04-30T11:21:13.995Z,1.43
2023-04-30T11:24:45.120Z,2.47
2023-04-30T11:28:04.999Z,1.63
2023-04-30T11:31:21.128Z,1.40
2023-04-30T11:34:37.139Z,1.50
2023-04-30T11:38:09.165Z,1.50
2023-04-30T11:41:25.046Z,1.73
2023-04-30T11:44:57.180Z,1.50
2023-04-30T11:48:13.269Z,1.33
2023-04-30T11:51:41.235Z,1.30
2023-04-30T11:54:58.016Z,1.23
2023-04-30T11:58:17.199Z,1.60
2023-04-30T12:01:35.141Z,1.30
2023-04-30T12:04:54.138Z,1.37
2023-04-30T12:08:16.122Z,1.40
2023-04-30T12:11:48.147Z,1.20
2023-04-30T12:14:52.280Z,1.20
2023-04-30T12:18:22.323Z,1.40
2023-04-30T12:21:38.257Z,1.47
2023-04-30T12:24:55.141Z,1.43
2023-04-30T12:28:12.283Z,1.17
2023-04-30T12:31:29.377Z,1.93
2023-04-30T12:34:46.219Z,1.60
2023-04-30T12:38:17.352Z,1.10
2023-04-30T12:41:21.280Z,1.10
2023-04-30T12:44:49.359Z,1.20
2023-04-30T12:48:00.366Z,1.40
2023-04-30T12:51:30.252Z,1.10
2023-04-30T12:54:52.353Z,1.60
2023-04-30T12:58:36.507Z,1.37
2023-04-30T13:01:29.133Z,1.20
2023-04-30T13:05:00.437Z,1.30
2023-04-30T13:08:21.418Z,1.30
2023-04-30T13:11:52.319Z,1.30
2023-04-30T13:14:57.290Z,1.63
2023-04-30T13:18:16.367Z,1.30
2023-04-30T13:21:20.410Z,1.50
2023-04-30T13:24:49.677Z,1.40
2023-04-30T13:27:54.481Z,1.20
2023-04-30T13:31:13.387Z,1.20
2023-04-30T13:34:17.405Z,1.33
2023-04-30T13:37:36.524Z,1.07
2023-04-30T13:41:06.516Z,0.97
2023-04-30T13:44:25.476Z,1.27
2023-04-30T13:47:29.530Z,1.37
2023-04-30T13:50:45.480Z,1.20
2023-04-30T13:53:49.542Z,1.30
2023-04-30T13:57:21.496Z,1.00
2023-04-30T14:00:40.640Z,1.20
2023-04-30T14:03:59.597Z,1.40
2023-04-30T14:07:03.544Z,1.50
2023-04-30T14:10:19.485Z,1.00
2023-04-30T14:13:36.784Z,1.10
2023-04-30T14:16:53.575Z,1.27
2023-04-30T14:19:57.805Z,1.30
2023-04-30T14:23:13.644Z,1.00
2023-04-30T14:26:29.524Z,0.80
2023-04-30T14:30:01.616Z,0.80
2023-04-30T14:33:05.701Z,1.50
2023-04-30T14:36:33.610Z,1.00
2023-04-30T14:39:37.486Z,0.85
2023-04-30T14:43:00.215Z,1.00
2023-04-30T14:46:18.629Z,1.30
2023-04-30T14:49:35.639Z,1.50
2023-04-30T14:52:39.835Z,1.40
2023-04-30T14:56:07.763Z,1.30
2023-04-30T14:59:11.709Z,1.30
2023-04-30T15:02:46.749Z,1.20
2023-04-30T15:09:08.788Z,1.20
2023-04-30T15:12:12.688Z,1.00
2023-04-30T15:15:29.841Z,1.40
2023-04-30T15:18:46.822Z,1.45
2023-04-30T15:22:05.779Z,1.00
2023-04-30T15:25:09.826Z,1.75
2023-04-30T15:28:26.785Z,1.00
2023-04-30T15:31:30.862Z,1.00
2023-04-30T15:35:02.923Z,1.00
2023-04-30T15:38:19.080Z,0.90
2023-04-30T15:41:35.870Z,1.07
2023-04-30T15:44:39.860Z,1.17
2023-04-30T15:47:58.886Z,1.40
2023-04-30T15:51:18.791Z,1.07
2023-04-30T15:54:37.810Z,1.30
2023-04-30T15:57:41.884Z,1.15
2023-04-30T16:00:58.949Z,1.10
2023-04-30T16:04:15.076Z,1.20
2023-04-30T16:07:32.943Z,0.83
2023-04-30T16:11:03.889Z,1.33
2023-04-30T16:14:07.917Z,1.20
2023-04-30T16:17:27.912Z,1.20
2023-04-30T16:20:31.958Z,1.13
2023-04-30T16:24:03.943Z,1.40
2023-04-30T16:27:20.177Z,1.17
2023-04-30T16:30:50.923Z,0.93
2023-04-30T16:33:55.052Z,1.40
2023-04-30T16:37:14.080Z,1.20
2023-04-30T16:40:32.016Z,1.07
2023-04-30T16:43:49.011Z,1.17
2023-04-30T16:46:53.005Z,1.00
2023-04-30T16:50:24.159Z,1.20
2023-04-30T16:53:28.109Z,1.50
2023-04-30T16:57:05.996Z,1.30
2023-04-30T17:00:10.127Z,1.10
2023-04-30T17:03:16.088Z,1.30
2023-04-30T17:06:20.141Z,1.10
2023-04-30T17:09:39.001Z,1.40
2023-04-30T17:12:57.044Z,1.07
2023-04-30T17:16:16.135Z,1.17
2023-04-30T17:19:20.153Z,1.20
2023-04-30T17:22:51.145Z,1.20
2023-04-30T17:25:54.928Z,0.90
2023-04-30T17:29:27.061Z,1.30
2023-04-30T17:32:43.174Z,1.25
2023-04-30T17:35:59.230Z,1.40
2023-04-30T17:39:03.220Z,1.20
2023-04-30T17:42:22.285Z,1.20
2023-04-30T17:45:40.366Z,0.90
2023-04-30T17:48:59.197Z,1.27
2023-04-30T17:52:03.294Z,1.50
2023-04-30T17:55:31.206Z,1.45
2023-04-30T17:58:35.608Z,1.20
2023-04-30T18:02:05.211Z,1.17
2023-04-30T18:05:29.061Z,1.17
2023-04-30T18:08:34.269Z,1.20
2023-04-30T18:11:53.326Z,1.23
2023-04-30T18:14:57.236Z,1.30
2023-04-30T18:18:32.309Z,1.67
2023-04-30T18:21:36.379Z,1.37
2023-04-30T18:25:08.275Z,1.33
2023-04-30T18:28:12.333Z,1.30
2023-04-30T18:31:28.548Z,1.30
2023-04-30T18:34:48.135Z,1.37
2023-04-30T18:38:07.395Z,1.50
2023-04-30T18:41:11.404Z,1.17
2023-04-30T18:44:30.436Z,1.23
2023-04-30T18:47:34.327Z,1.20
2023-04-30T18:51:06.508Z,1.25
2023-04-30T18:54:10.244Z,1.37
2023-04-30T18:57:26.420Z,1.27
2023-04-30T19:00:30.432Z,1.33
2023-04-30T19:03:46.557Z,1.40
2023-04-30T19:07:06.373Z,1.27
2023-04-30T19:10:23.882Z,1.13
2023-04-30T19:13:30.497Z,1.50
2023-04-30T19:16:47.622Z,1.33
2023-04-30T19:19:51.436Z,1.47
2023-04-30T19:23:26.443Z,1.60
2023-04-30T19:26:30.543Z,1.20
2023-04-30T19:29:59.481Z,1.47
2023-04-30T19:33:03.579Z,1.53
2023-04-30T19:36:32.206Z,1.40
2023-04-30T19:39:49.617Z,1.57
2023-04-30T19:43:06.516Z,1.10
2023-04-30T19:46:22.689Z,1.50
2023-04-30T19:49:41.661Z,1.70
2023-04-30T19:52:45.609Z,1.70
2023-04-30T19:56:14.635Z,1.80
2023-04-30T19:59:18.572Z,1.30
2023-04-30T20:02:37.892Z,1.20
2023-04-30T20:06:09.600Z,1.50
2023-04-30T20:09:28.683Z,1.50
2023-04-30T20:13:03.586Z,1.60
2023-04-30T20:16:07.672Z,1.83
2023-04-30T20:19:41.695Z,1.57
2023-04-30T20:22:45.728Z,1.45
2023-04-30T20:26:04.783Z,2.30
2023-04-30T20:29:21.757Z,1.43
2023-04-30T20:32:56.521Z,2.00
2023-04-30T20:36:16.882Z,1.73
2023-04-30T20:39:39.844Z,1.90
2023-04-30T20:42:47.984Z,1.87
2023-04-30T20:46:21.781Z,2.00
2023-04-30T20:49:25.733Z,1.43
2023-04-30T20:52:45.817Z,1.97
2023-04-30T20:55:49.789Z,2.00
2023-04-30T20:59:05.881Z,2.20
2023-04-30T21:02:23.007Z,1.80
2023-04-30T21:05:38.780Z,2.43
2023-04-30T21:08:42.836Z,2.70
2023-04-30T21:12:02.042Z,2.87
2023-04-30T21:15:05.854Z,3.10
2023-04-30T21:18:37.932Z,2.85
2023-04-30T21:21:44.829Z,2.60
2023-04-30T21:25:03.847Z,2.70
2023-04-30T21:28:07.955Z,3.37
2023-04-30T21:31:26.905Z,2.90
2023-04-30T21:34:43.891Z,2.77
2023-04-30T21:38:00.852Z,2.85
2023-04-30T21:41:06.870Z,3.60
2023-04-30T21:44:25.987Z,3.45
2023-04-30T21:47:29.975Z,3.30
2023-04-30T21:51:05.088Z,3.13
2023-04-30T21:54:09.036Z,3.05
2023-04-30T21:57:40.054Z,3.55
2023-04-30T22:00:43.981Z,3.47
2023-04-30T22:04:00.553Z,2.85
2023-04-30T22:07:17.023Z,2.57
2023-04-30T22:10:34.180Z,2.85
2023-04-30T22:13:38.036Z,3.20
2023-04-30T22:16:57.285Z,2.60
2023-04-30T22:20:13.046Z,2.60
2023-04-30T22:23:47.118Z,2.40
2023-04-30T22:26:51.080Z,2.20
2023-04-30T22:30:12.213Z,2.40
2023-04-30T22:33:28.141Z,2.60
2023-04-30T22:36:47.322Z,2.75
2023-04-30T22:40:07.391Z,2.43
2023-04-30T22:43:36.084Z,2.80
2023-04-30T22:46:40.169Z,1.97
2023-04-30T22:50:09.144Z,2.30
2023-04-30T22:53:25.145Z,2.30
2023-04-30T22:56:57.372Z,2.33
2023-04-30T23:00:04.478Z,2.67
2023-04-30T23:03:23.182Z,3.20
2023-04-30T23:06:27.385Z,2.80
2023-04-30T23:09:46.300Z,2.77
2023-04-30T23:13:03.151Z,2.45
2023-04-30T23:16:22.462Z,2.90
2023-04-30T23:19:38.161Z,2.43
2023-04-30T23:22:57.176Z,3.13
2023-04-30T23:26:13.313Z,2.33
2023-04-30T23:29:48.349Z,2.50
2023-04-30T23:32:52.385Z,2.50
2023-04-30T23:36:14.386Z,2.80
2023-04-30T23:39:21.309Z,2.70
2023-04-30T23:42:40.399Z,3.03
2023-04-30T23:46:00.414Z,2.73
2023-04-30T23:49:19.349Z,2.65
2023-04-30T23:52:23.432Z,2.73
2023-04-30T23:55:39.415Z,2.60
2023-04-30T23:58:55.387Z,3.20
